Rockledge, Pennsylvania
Current Conditions -  °F | °C
As of 6:54 PM on Wednesday 28 Jan 2015 (Local Time) from KPNE Reporting Station
Clear Clear  
Wind Chill: 23°   Ceiling: Unl
Heat Index: 31°   Visibility: 10mi
Dew Point:   Wind: 9mph
Humidity: 29%   Direction: 320°NW
Pressure: 30.24"   Gusts: NA
Location:  40.1039°N, 75.1072°W
Report Text: KPNE 282354Z AUTO 32008KT 10SM CLR M01/M17 A3024 RMK AO2 SLP242 T10061167 10011 21006 51027 TSNO
Loading
Personal Weather Stations






























Interactive Weather Map New forecast layout! Learn more

10-Day Weather Forecast

Advertisements
Track Severe Weather on mobile